sensor_id;sensor_type;location;lat;lon;timestamp;pressure;altitude;pressure_sealevel;temperature;humidity
16793;BME280;8513;42.662;23.350;2022-12-05T00:01:29;95815.97;;;6.79;67.78
16793;BME280;8513;42.662;23.350;2022-12-05T00:03:59;95814.78;;;6.83;67.60
16793;BME280;8513;42.662;23.350;2022-12-05T00:06:26;95817.91;;;6.89;67.67
16793;BME280;8513;42.662;23.350;2022-12-05T00:08:52;95815.81;;;6.94;67.05
16793;BME280;8513;42.662;23.350;2022-12-05T00:11:20;95809.88;;;6.79;67.45
16793;BME280;8513;42.662;23.350;2022-12-05T00:13:46;95816.78;;;6.80;67.24
16793;BME280;8513;42.662;23.350;2022-12-05T00:16:16;95817.94;;;6.76;67.72
16793;BME280;8513;42.662;23.350;2022-12-05T00:18:42;95825.91;;;6.74;67.71
16793;BME280;8513;42.662;23.350;2022-12-05T00:21:13;95822.66;;;6.71;67.51
16793;BME280;8513;42.662;23.350;2022-12-05T00:23:39;95820.47;;;6.65;67.79
16793;BME280;8513;42.662;23.350;2022-12-05T00:26:05;95830.50;;;6.71;67.47
16793;BME280;8513;42.662;23.350;2022-12-05T00:28:32;95826.38;;;6.55;68.20
16793;BME280;8513;42.662;23.350;2022-12-05T00:31:06;95823.63;;;6.57;67.88
16793;BME280;8513;42.662;23.350;2022-12-05T00:33:32;95832.66;;;6.53;68.37
16793;BME280;8513;42.662;23.350;2022-12-05T00:36:06;95835.66;;;6.47;68.36
16793;BME280;8513;42.662;23.350;2022-12-05T00:38:32;95830.34;;;6.48;68.58
16793;BME280;8513;42.662;23.350;2022-12-05T00:41:06;95831.38;;;6.58;68.10
16793;BME280;8513;42.662;23.350;2022-12-05T00:43:33;95826.38;;;6.55;68.26
16793;BME280;8513;42.662;23.350;2022-12-05T00:46:07;95835.44;;;6.62;67.90
16793;BME280;8513;42.662;23.350;2022-12-05T00:48:33;95829.59;;;6.59;67.97
16793;BME280;8513;42.662;23.350;2022-12-05T00:53:38;95835.25;;;6.66;67.68
16793;BME280;8513;42.662;23.350;2022-12-05T00:56:10;95831.25;;;6.60;67.78
16793;BME280;8513;42.662;23.350;2022-12-05T00:58:36;95829.38;;;6.62;68.21
16793;BME280;8513;42.662;23.350;2022-12-05T01:01:15;95817.66;;;6.68;67.73
16793;BME280;8513;42.662;23.350;2022-12-05T01:03:42;95813.59;;;6.63;68.07
16793;BME280;8513;42.662;23.350;2022-12-05T01:06:08;95804.06;;;6.62;67.95
16793;BME280;8513;42.662;23.350;2022-12-05T01:08:35;95811.75;;;6.53;68.34
16793;BME280;8513;42.662;23.350;2022-12-05T01:11:01;95809.97;;;6.53;68.10
16793;BME280;8513;42.662;23.350;2022-12-05T01:13:27;95812.06;;;6.48;68.23
16793;BME280;8513;42.662;23.350;2022-12-05T01:15:53;95805.03;;;6.49;68.06
16793;BME280;8513;42.662;23.350;2022-12-05T01:18:19;95818.31;;;6.46;68.31
16793;BME280;8513;42.662;23.350;2022-12-05T01:20:45;95817.50;;;6.45;68.80
16793;BME280;8513;42.662;23.350;2022-12-05T01:23:11;95814.88;;;6.45;68.64
16793;BME280;8513;42.662;23.350;2022-12-05T01:25:41;95813.72;;;6.49;68.97
16793;BME280;8513;42.662;23.350;2022-12-05T01:28:07;95819.28;;;6.45;68.84
16793;BME280;8513;42.662;23.350;2022-12-05T01:30:37;95802.22;;;6.52;68.57
16793;BME280;8513;42.662;23.350;2022-12-05T01:33:03;95796.16;;;6.51;68.72
16793;BME280;8513;42.662;23.350;2022-12-05T01:35:33;95797.72;;;6.54;68.91
16793;BME280;8513;42.662;23.350;2022-12-05T01:38:00;95804.00;;;6.51;68.88
16793;BME280;8513;42.662;23.350;2022-12-05T01:40:25;95790.84;;;6.53;68.57
16793;BME280;8513;42.662;23.350;2022-12-05T01:42:51;95792.28;;;6.57;68.82
16793;BME280;8513;42.662;23.350;2022-12-05T01:45:23;95784.66;;;6.54;69.07
16793;BME280;8513;42.662;23.350;2022-12-05T01:47:52;95780.78;;;6.59;68.71
16793;BME280;8513;42.662;23.350;2022-12-05T01:50:18;95787.88;;;6.57;68.81
16793;BME280;8513;42.662;23.350;2022-12-05T01:52:44;95779.03;;;6.47;69.09
16793;BME280;8513;42.662;23.350;2022-12-05T01:55:12;95777.88;;;6.51;68.78
16793;BME280;8513;42.662;23.350;2022-12-05T01:57:39;95778.69;;;6.52;68.59
16793;BME280;8513;42.662;23.350;2022-12-05T02:00:12;95781.66;;;6.47;69.18
16793;BME280;8513;42.662;23.350;2022-12-05T02:02:42;95795.66;;;6.46;69.24
16793;BME280;8513;42.662;23.350;2022-12-05T02:05:21;95788.44;;;6.50;69.22
16793;BME280;8513;42.662;23.350;2022-12-05T02:07:47;95783.81;;;6.53;69.10
16793;BME280;8513;42.662;23.350;2022-12-05T02:10:13;95776.94;;;6.52;69.02
16793;BME280;8513;42.662;23.350;2022-12-05T02:12:39;95784.56;;;6.55;68.84
16793;BME280;8513;42.662;23.350;2022-12-05T02:17:56;95797.28;;;6.60;69.08
16793;BME280;8513;42.662;23.350;2022-12-05T02:20:54;95792.06;;;6.60;68.77
16793;BME280;8513;42.662;23.350;2022-12-05T02:34:59;95783.06;;;6.64;68.96
16793;BME280;8513;42.662;23.350;2022-12-05T02:37:32;95788.28;;;6.64;68.99
16793;BME280;8513;42.662;23.350;2022-12-05T02:40:13;95781.22;;;6.53;69.26
16793;BME280;8513;42.662;23.350;2022-12-05T02:42:49;95776.81;;;6.54;69.37
16793;BME280;8513;42.662;23.350;2022-12-05T02:45:19;95778.81;;;6.50;69.61
16793;BME280;8513;42.662;23.350;2022-12-05T02:47:51;95780.78;;;6.47;69.47
16793;BME280;8513;42.662;23.350;2022-12-05T02:50:27;95768.06;;;6.55;69.48
16793;BME280;8513;42.662;23.350;2022-12-05T02:52:58;95766.97;;;6.57;69.23
16793;BME280;8513;42.662;23.350;2022-12-05T02:55:25;95769.72;;;6.56;69.49
16793;BME280;8513;42.662;23.350;2022-12-05T02:57:56;95769.50;;;6.59;69.42
16793;BME280;8513;42.662;23.350;2022-12-05T03:00:23;95760.22;;;6.55;69.52
16793;BME280;8513;42.662;23.350;2022-12-05T03:02:52;95755.47;;;6.60;69.35
16793;BME280;8513;42.662;23.350;2022-12-05T03:07:54;95759.84;;;6.72;68.81
16793;BME280;8513;42.662;23.350;2022-12-05T03:10:25;95766.13;;;6.70;68.95
16793;BME280;8513;42.662;23.350;2022-12-05T03:12:58;95762.75;;;6.68;68.76
16793;BME280;8513;42.662;23.350;2022-12-05T03:15:27;95768.13;;;6.66;69.02
16793;BME280;8513;42.662;23.350;2022-12-05T03:18:03;95767.78;;;6.71;68.87
16793;BME280;8513;42.662;23.350;2022-12-05T03:23:34;95767.06;;;6.69;68.88
16793;BME280;8513;42.662;23.350;2022-12-05T03:28:53;95759.22;;;6.69;69.16
16793;BME280;8513;42.662;23.350;2022-12-05T03:31:39;95776.34;;;6.73;68.95
16793;BME280;8513;42.662;23.350;2022-12-05T03:34:11;95776.25;;;6.74;68.92
16793;BME280;8513;42.662;23.350;2022-12-05T03:36:43;95767.28;;;6.66;69.31
16793;BME280;8513;42.662;23.350;2022-12-05T03:39:32;95766.50;;;6.52;69.29
16793;BME280;8513;42.662;23.350;2022-12-05T03:42:11;95768.22;;;6.65;68.80
16793;BME280;8513;42.662;23.350;2022-12-05T03:44:57;95779.34;;;6.55;69.15
16793;BME280;8513;42.662;23.350;2022-12-05T03:50:27;95763.81;;;6.65;68.76
16793;BME280;8513;42.662;23.350;2022-12-05T03:53:01;95776.34;;;6.73;68.54
16793;BME280;8513;42.662;23.350;2022-12-05T03:55:29;95775.31;;;6.62;68.71
16793;BME280;8513;42.662;23.350;2022-12-05T03:58:01;95788.69;;;6.71;68.63
16793;BME280;8513;42.662;23.350;2022-12-05T04:00:34;95777.00;;;6.63;68.71
16793;BME280;8513;42.662;23.350;2022-12-05T04:03:08;95777.75;;;6.66;68.71
16793;BME280;8513;42.662;23.350;2022-12-05T04:08:19;95773.63;;;6.74;68.25
16793;BME280;8513;42.662;23.350;2022-12-05T04:10:48;95779.88;;;6.48;69.38
16793;BME280;8513;42.662;23.350;2022-12-05T04:13:54;95770.97;;;6.63;69.04
16793;BME280;8513;42.662;23.350;2022-12-05T04:16:24;95768.22;;;6.65;68.56
16793;BME280;8513;42.662;23.350;2022-12-05T04:21:55;95759.44;;;6.66;68.52
16793;BME280;8513;42.662;23.350;2022-12-05T04:24:30;95752.53;;;6.65;68.66
16793;BME280;8513;42.662;23.350;2022-12-05T04:38:18;95757.88;;;6.63;69.12
16793;BME280;8513;42.662;23.350;2022-12-05T04:40:57;95758.22;;;6.58;69.16
16793;BME280;8513;42.662;23.350;2022-12-05T04:43:24;95769.16;;;6.63;68.90
16793;BME280;8513;42.662;23.350;2022-12-05T04:45:51;95773.69;;;6.49;69.38
16793;BME280;8513;42.662;23.350;2022-12-05T04:48:20;95779.34;;;6.55;69.29
16793;BME280;8513;42.662;23.350;2022-12-05T04:50:48;95777.94;;;6.62;69.07
16793;BME280;8513;42.662;23.350;2022-12-05T04:53:15;95781.28;;;6.65;69.12
16793;BME280;8513;42.662;23.350;2022-12-05T04:55:46;95777.00;;;6.63;69.00
16793;BME280;8513;42.662;23.350;2022-12-05T04:58:23;95772.41;;;6.54;69.30
16793;BME280;8513;42.662;23.350;2022-12-05T05:03:30;95774.94;;;6.56;69.17
16793;BME280;8513;42.662;23.350;2022-12-05T05:05:57;95780.13;;;6.69;69.45
16793;BME280;8513;42.662;23.350;2022-12-05T05:08:25;95789.84;;;6.67;69.04
16793;BME280;8513;42.662;23.350;2022-12-05T05:11:05;95787.03;;;6.70;68.77
16793;BME280;8513;42.662;23.350;2022-12-05T05:13:34;95784.19;;;6.73;68.66
16793;BME280;8513;42.662;23.350;2022-12-05T05:16:00;95791.09;;;6.74;68.75
16793;BME280;8513;42.662;23.350;2022-12-05T05:18:25;95791.41;;;6.69;68.79
16793;BME280;8513;42.662;23.350;2022-12-05T05:20:51;95802.47;;;6.73;68.77
16793;BME280;8513;42.662;23.350;2022-12-05T05:23:16;95795.09;;;6.67;68.70
16793;BME280;8513;42.662;23.350;2022-12-05T05:25:42;95804.34;;;6.71;68.67
16793;BME280;8513;42.662;23.350;2022-12-05T05:28:07;95804.22;;;6.85;68.45
16793;BME280;8513;42.662;23.350;2022-12-05T05:30:32;95809.56;;;6.83;68.10
16793;BME280;8513;42.662;23.350;2022-12-05T05:32:59;95805.28;;;6.82;68.38
16793;BME280;8513;42.662;23.350;2022-12-05T05:35:24;95812.91;;;6.85;68.31
16793;BME280;8513;42.662;23.350;2022-12-05T05:37:50;95805.16;;;6.84;68.32
16793;BME280;8513;42.662;23.350;2022-12-05T05:40:15;95800.78;;;6.84;67.88
16793;BME280;8513;42.662;23.350;2022-12-05T05:42:45;95801.63;;;6.85;68.15
16793;BME280;8513;42.662;23.350;2022-12-05T05:45:12;95801.63;;;6.85;67.85
16793;BME280;8513;42.662;23.350;2022-12-05T05:47:37;95806.72;;;6.87;68.08
16793;BME280;8513;42.662;23.350;2022-12-05T05:50:04;95816.75;;;6.93;67.81
16793;BME280;8513;42.662;23.350;2022-12-05T05:52:32;95809.00;;;6.54;68.95
16793;BME280;8513;42.662;23.350;2022-12-05T05:54:59;95809.41;;;6.61;68.85
16793;BME280;8513;42.662;23.350;2022-12-05T05:57:24;95805.63;;;6.65;68.79
16793;BME280;8513;42.662;23.350;2022-12-05T05:59:49;95814.63;;;6.74;68.81
16793;BME280;8513;42.662;23.350;2022-12-05T06:02:15;95815.63;;;6.84;68.38
16793;BME280;8513;42.662;23.350;2022-12-05T06:04:40;95811.13;;;6.86;67.99
16793;BME280;8513;42.662;23.350;2022-12-05T06:07:06;95828.88;;;6.94;68.06
16793;BME280;8513;42.662;23.350;2022-12-05T06:09:31;95825.22;;;6.96;67.61
16793;BME280;8513;42.662;23.350;2022-12-05T06:11:57;95823.31;;;6.98;67.91
16793;BME280;8513;42.662;23.350;2022-12-05T06:14:22;95828.94;;;7.05;67.53
16793;BME280;8513;42.662;23.350;2022-12-05T06:16:47;95833.34;;;7.04;67.90
16793;BME280;8513;42.662;23.350;2022-12-05T06:19:13;95832.25;;;6.83;68.51
16793;BME280;8513;42.662;23.350;2022-12-05T06:21:38;95829.31;;;6.38;70.17
16793;BME280;8513;42.662;23.350;2022-12-05T06:24:04;95824.50;;;6.06;71.89
16793;BME280;8513;42.662;23.350;2022-12-05T06:26:30;95822.63;;;6.08;72.21
16793;BME280;8513;42.662;23.350;2022-12-05T06:28:55;95820.75;;;6.23;71.67
16793;BME280;8513;42.662;23.350;2022-12-05T06:31:23;95822.50;;;6.48;70.46
16793;BME280;8513;42.662;23.350;2022-12-05T06:33:51;95825.84;;;6.63;69.60
16793;BME280;8513;42.662;23.350;2022-12-05T06:36:19;95825.25;;;6.83;69.06
16793;BME280;8513;42.662;23.350;2022-12-05T06:38:45;95822.91;;;6.92;68.71
16793;BME280;8513;42.662;23.350;2022-12-05T06:41:14;95831.16;;;6.98;68.14
16793;BME280;8513;42.662;23.350;2022-12-05T06:43:41;95825.22;;;6.96;68.13
16793;BME280;8513;42.662;23.350;2022-12-05T06:46:07;95837.28;;;7.10;67.73
16793;BME280;8513;42.662;23.350;2022-12-05T06:48:33;95832.06;;;7.10;67.62
16793;BME280;8513;42.662;23.350;2022-12-05T06:50:59;95840.97;;;7.07;67.82
16793;BME280;8513;42.662;23.350;2022-12-05T06:53:25;95840.31;;;7.17;67.42
16793;BME280;8513;42.662;23.350;2022-12-05T06:55:59;95835.34;;;7.25;67.06
16793;BME280;8513;42.662;23.350;2022-12-05T06:58:25;95833.81;;;7.22;67.07
16793;BME280;8513;42.662;23.350;2022-12-05T07:00:51;95834.69;;;7.34;66.57
16793;BME280;8513;42.662;23.350;2022-12-05T07:03:35;95830.34;;;7.22;67.02
16793;BME280;8513;42.662;23.350;2022-12-05T07:06:01;95839.59;;;7.39;66.74
16793;BME280;8513;42.662;23.350;2022-12-05T07:08:27;95836.06;;;7.51;66.49
16793;BME280;8513;42.662;23.350;2022-12-05T07:10:53;95829.72;;;7.42;66.11
16793;BME280;8513;42.662;23.350;2022-12-05T07:13:18;95827.34;;;7.15;66.46
16793;BME280;8513;42.662;23.350;2022-12-05T07:15:48;95840.03;;;7.09;67.55
16793;BME280;8513;42.662;23.350;2022-12-05T07:18:15;95838.41;;;7.19;66.84
16793;BME280;8513;42.662;23.350;2022-12-05T07:20:41;95839.63;;;7.26;66.87
16793;BME280;8513;42.662;23.350;2022-12-05T07:23:07;95835.91;;;7.41;66.48
16793;BME280;8513;42.662;23.350;2022-12-05T07:25:33;95834.72;;;7.45;66.33
16793;BME280;8513;42.662;23.350;2022-12-05T07:27:58;95846.16;;;7.44;66.24
16793;BME280;8513;42.662;23.350;2022-12-05T07:30:24;95836.41;;;7.46;66.07
16793;BME280;8513;42.662;23.350;2022-12-05T07:32:49;95850.91;;;7.50;65.95
16793;BME280;8513;42.662;23.350;2022-12-05T07:35:15;95857.06;;;7.38;66.10
16793;BME280;8513;42.662;23.350;2022-12-05T07:37:40;95852.66;;;7.39;66.18
16793;BME280;8513;42.662;23.350;2022-12-05T07:40:06;95853.22;;;7.31;66.42
16793;BME280;8513;42.662;23.350;2022-12-05T07:42:32;95853.53;;;7.50;65.63
16793;BME280;8513;42.662;23.350;2022-12-05T07:44:57;95849.53;;;7.10;67.04
16793;BME280;8513;42.662;23.350;2022-12-05T07:47:23;95852.59;;;7.03;67.58
16793;BME280;8513;42.662;23.350;2022-12-05T07:49:48;95862.44;;;7.24;67.31
16793;BME280;8513;42.662;23.350;2022-12-05T07:52:14;95864.78;;;7.16;67.27
16793;BME280;8513;42.662;23.350;2022-12-05T07:54:39;95865.97;;;7.36;66.69
16793;BME280;8513;42.662;23.350;2022-12-05T07:57:04;95861.81;;;7.33;66.62
16793;BME280;8513;42.662;23.350;2022-12-05T07:59:30;95865.03;;;7.37;66.48
16793;BME280;8513;42.662;23.350;2022-12-05T08:01:55;95856.34;;;7.36;66.11
16793;BME280;8513;42.662;23.350;2022-12-05T08:04:21;95856.38;;;7.47;65.83
16793;BME280;8513;42.662;23.350;2022-12-05T08:06:46;95847.03;;;7.08;67.57
16793;BME280;8513;42.662;23.350;2022-12-05T08:09:12;95850.28;;;7.36;67.18
16793;BME280;8513;42.662;23.350;2022-12-05T08:11:37;95852.50;;;7.29;67.31
16793;BME280;8513;42.662;23.350;2022-12-05T08:14:04;95851.88;;;7.49;66.38
16793;BME280;8513;42.662;23.350;2022-12-05T08:16:30;95852.38;;;7.55;66.35
16793;BME280;8513;42.662;23.350;2022-12-05T08:18:58;95847.91;;;7.68;65.90
16793;BME280;8513;42.662;23.350;2022-12-05T08:21:24;95849.97;;;7.76;65.35
16793;BME280;8513;42.662;23.350;2022-12-05T08:23:50;95854.50;;;7.85;65.06
16793;BME280;8513;42.662;23.350;2022-12-05T08:26:22;95857.69;;;7.77;65.15
16793;BME280;8513;42.662;23.350;2022-12-05T08:28:57;95851.56;;;7.89;64.78
16793;BME280;8513;42.662;23.350;2022-12-05T08:31:24;95852.03;;;7.94;64.30
16793;BME280;8513;42.662;23.350;2022-12-05T08:33:51;95854.75;;;7.82;64.75
16793;BME280;8513;42.662;23.350;2022-12-05T08:36:18;95857.91;;;7.39;65.75
16793;BME280;8513;42.662;23.350;2022-12-05T08:38:44;95849.81;;;7.66;65.49
16793;BME280;8513;42.662;23.350;2022-12-05T08:41:13;95855.34;;;7.85;64.91
16793;BME280;8513;42.662;23.350;2022-12-05T08:43:39;95852.28;;;7.91;63.82
16793;BME280;8513;42.662;23.350;2022-12-05T08:46:05;95851.56;;;7.89;63.19
16793;BME280;8513;42.662;23.350;2022-12-05T08:48:31;95841.91;;;7.90;62.80
16793;BME280;8513;42.662;23.350;2022-12-05T08:50:57;95846.66;;;7.96;62.21
16793;BME280;8513;42.662;23.350;2022-12-05T08:53:24;95854.19;;;8.01;61.28
16793;BME280;8513;42.662;23.350;2022-12-05T08:55:49;95855.59;;;7.93;61.56
16793;BME280;8513;42.662;23.350;2022-12-05T08:58:15;95858.69;;;7.99;61.95
16793;BME280;8513;42.662;23.350;2022-12-05T09:00:40;95859.59;;;8.10;61.81
16793;BME280;8513;42.662;23.350;2022-12-05T09:03:08;95849.94;;;8.11;61.49
16793;BME280;8513;42.662;23.350;2022-12-05T09:05:35;95860.03;;;8.04;61.56
16793;BME280;8513;42.662;23.350;2022-12-05T09:08:00;95851.81;;;8.09;61.17
16793;BME280;8513;42.662;23.350;2022-12-05T09:10:26;95843.13;;;8.08;61.08
16793;BME280;8513;42.662;23.350;2022-12-05T09:12:51;95849.59;;;7.80;62.28
16793;BME280;8513;42.662;23.350;2022-12-05T09:15:17;95852.63;;;7.87;62.80
16793;BME280;8513;42.662;23.350;2022-12-05T09:17:43;95846.97;;;8.15;61.89
16793;BME280;8513;42.662;23.350;2022-12-05T09:20:09;95849.47;;;8.17;61.57
16793;BME280;8513;42.662;23.350;2022-12-05T09:22:37;95848.00;;;8.02;61.73
16793;BME280;8513;42.662;23.350;2022-12-05T09:25:02;95837.31;;;8.05;61.69
16793;BME280;8513;42.662;23.350;2022-12-05T09:27:28;95834.44;;;8.08;61.83
16793;BME280;8513;42.662;23.350;2022-12-05T09:29:54;95834.91;;;8.02;62.34
16793;BME280;8513;42.662;23.350;2022-12-05T09:32:20;95835.28;;;8.08;62.33
16793;BME280;8513;42.662;23.350;2022-12-05T09:34:46;95829.00;;;8.22;62.06
16793;BME280;8513;42.662;23.350;2022-12-05T09:37:11;95835.28;;;8.20;62.06
16793;BME280;8513;42.662;23.350;2022-12-05T09:39:37;95834.22;;;8.22;61.77
16793;BME280;8513;42.662;23.350;2022-12-05T09:47:58;95830.84;;;7.86;62.40
16793;BME280;8513;42.662;23.350;2022-12-05T09:50:25;95824.16;;;7.82;62.64
16793;BME280;8513;42.662;23.350;2022-12-05T09:55:28;95816.81;;;7.99;62.72
16793;BME280;8513;42.662;23.350;2022-12-05T09:57:59;95814.44;;;8.07;62.95
16793;BME280;8513;42.662;23.350;2022-12-05T10:00:27;95812.44;;;8.10;62.64
16793;BME280;8513;42.662;23.350;2022-12-05T10:03:36;95817.91;;;8.30;62.23
16793;BME280;8513;42.662;23.350;2022-12-05T10:06:23;95810.25;;;8.04;63.20
16793;BME280;8513;42.662;23.350;2022-12-05T10:11:44;95810.53;;;8.35;61.81
16793;BME280;8513;42.662;23.350;2022-12-05T10:16:49;95802.13;;;8.43;62.31
16793;BME280;8513;42.662;23.350;2022-12-05T10:19:37;95799.22;;;8.34;61.84
16793;BME280;8513;42.662;23.350;2022-12-05T10:22:17;95797.53;;;8.33;61.86
16793;BME280;8513;42.662;23.350;2022-12-05T10:24:54;95791.63;;;8.43;61.53
16793;BME280;8513;42.662;23.350;2022-12-05T10:27:37;95794.97;;;8.56;60.84
16793;BME280;8513;42.662;23.350;2022-12-05T10:32:35;95791.13;;;8.71;60.05
16793;BME280;8513;42.662;23.350;2022-12-05T10:35:26;95796.59;;;8.68;60.00
16793;BME280;8513;42.662;23.350;2022-12-05T10:38:02;95789.72;;;8.67;60.39
16793;BME280;8513;42.662;23.350;2022-12-05T10:40:37;95793.16;;;8.68;60.17
16793;BME280;8513;42.662;23.350;2022-12-05T10:43:08;95785.88;;;8.71;60.35
16793;BME280;8513;42.662;23.350;2022-12-05T10:45:45;95786.34;;;8.76;60.15
16793;BME280;8513;42.662;23.350;2022-12-05T10:48:13;95781.50;;;8.72;60.58
16793;BME280;8513;42.662;23.350;2022-12-05T10:50:41;95779.84;;;8.48;61.20
16793;BME280;8513;42.662;23.350;2022-12-05T10:53:07;95771.50;;;8.43;61.52
16793;BME280;8513;42.662;23.350;2022-12-05T10:55:45;95775.91;;;8.43;62.11
16793;BME280;8513;42.662;23.350;2022-12-05T10:58:21;95776.25;;;8.49;61.87
16793;BME280;8513;42.662;23.350;2022-12-05T11:00:52;95774.94;;;8.55;61.83
16793;BME280;8513;42.662;23.350;2022-12-05T11:03:40;95776.09;;;8.73;61.22
16793;BME280;8513;42.662;23.350;2022-12-05T11:06:18;95766.59;;;8.38;61.68
16793;BME280;8513;42.662;23.350;2022-12-05T11:08:56;95772.91;;;8.47;61.84
16793;BME280;8513;42.662;23.350;2022-12-05T11:11:25;95771.50;;;8.54;61.52
16793;BME280;8513;42.662;23.350;2022-12-05T11:14:17;95768.75;;;8.56;62.07
16793;BME280;8513;42.662;23.350;2022-12-05T11:16:54;95761.69;;;8.68;61.68
16793;BME280;8513;42.662;23.350;2022-12-05T11:21:47;95762.19;;;8.16;63.06
16793;BME280;8513;42.662;23.350;2022-12-05T11:24:25;95760.44;;;8.39;62.42
16793;BME280;8513;42.662;23.350;2022-12-05T11:26:51;95754.56;;;8.36;62.43
16793;BME280;8513;42.662;23.350;2022-12-05T11:31:53;95746.69;;;8.25;62.36
16793;BME280;8513;42.662;23.350;2022-12-05T11:34:24;95750.16;;;8.14;62.99
16793;BME280;8513;42.662;23.350;2022-12-05T11:37:04;95740.72;;;8.34;62.69
16793;BME280;8513;42.662;23.350;2022-12-05T11:39:31;95741.00;;;8.53;62.26
16793;BME280;8513;42.662;23.350;2022-12-05T11:42:23;95730.00;;;8.26;62.80
16793;BME280;8513;42.662;23.350;2022-12-05T11:56:41;95718.84;;;8.46;62.27
16793;BME280;8513;42.662;23.350;2022-12-05T11:59:33;95713.03;;;8.43;62.20
16793;BME280;8513;42.662;23.350;2022-12-05T12:24:30;95694.66;;;8.54;62.36
16793;BME280;8513;42.662;23.350;2022-12-05T12:27:13;95693.41;;;8.69;62.14
16793;BME280;8513;42.662;23.350;2022-12-05T12:30:06;95686.28;;;8.60;62.01
16793;BME280;8513;42.662;23.350;2022-12-05T12:35:30;95686.25;;;8.71;62.46
16793;BME280;8513;42.662;23.350;2022-12-05T12:48:54;95674.13;;;8.59;62.59
16793;BME280;8513;42.662;23.350;2022-12-05T12:51:22;95683.38;;;8.42;63.03
16793;BME280;8513;42.662;23.350;2022-12-05T12:53:58;95682.72;;;8.50;62.90
16793;BME280;8513;42.662;23.350;2022-12-05T13:01:58;95678.44;;;8.49;62.89
16793;BME280;8513;42.662;23.350;2022-12-05T13:04:37;95682.03;;;8.48;62.82
16793;BME280;8513;42.662;23.350;2022-12-05T13:07:16;95681.72;;;8.07;64.31
16793;BME280;8513;42.662;23.350;2022-12-05T13:09:55;95674.91;;;8.16;64.01
16793;BME280;8513;42.662;23.350;2022-12-05T13:12:25;95676.56;;;8.17;63.88
16793;BME280;8513;42.662;23.350;2022-12-05T13:14:59;95675.38;;;7.99;64.57
16793;BME280;8513;42.662;23.350;2022-12-05T13:17:28;95679.19;;;8.17;63.91
16793;BME280;8513;42.662;23.350;2022-12-05T13:19:55;95680.59;;;8.10;63.78
16793;BME280;8513;42.662;23.350;2022-12-05T13:22:23;95687.06;;;7.94;64.90
16793;BME280;8513;42.662;23.350;2022-12-05T13:24:51;95683.34;;;8.20;64.01
16793;BME280;8513;42.662;23.350;2022-12-05T13:27:19;95683.94;;;8.34;63.77
16793;BME280;8513;42.662;23.350;2022-12-05T13:29:52;95684.88;;;8.33;63.50
16793;BME280;8513;42.662;23.350;2022-12-05T13:32:34;95680.47;;;8.34;63.32
16793;BME280;8513;42.662;23.350;2022-12-05T13:37:32;95673.47;;;8.12;63.99
16793;BME280;8513;42.662;23.350;2022-12-05T13:40:34;95680.47;;;8.34;63.79
16793;BME280;8513;42.662;23.350;2022-12-05T13:43:26;95686.91;;;8.30;63.56
16793;BME280;8513;42.662;23.350;2022-12-05T13:46:01;95686.81;;;7.98;64.49
16793;BME280;8513;42.662;23.350;2022-12-05T13:48:30;95692.03;;;8.09;64.55
16793;BME280;8513;42.662;23.350;2022-12-05T13:51:23;95683.00;;;8.24;64.26
16793;BME280;8513;42.662;23.350;2022-12-05T13:54:02;95680.63;;;8.21;64.14
16793;BME280;8513;42.662;23.350;2022-12-05T13:56:58;95681.72;;;8.07;64.57
16793;BME280;8513;42.662;23.350;2022-12-05T14:07:46;95692.03;;;8.20;64.24
16793;BME280;8513;42.662;23.350;2022-12-05T14:10:21;95687.88;;;8.17;64.35
16793;BME280;8513;42.662;23.350;2022-12-05T14:13:01;95687.41;;;8.01;65.08
16793;BME280;8513;42.662;23.350;2022-12-05T14:18:00;95691.44;;;8.16;64.62
16793;BME280;8513;42.662;23.350;2022-12-05T14:26:14;95691.81;;;7.78;65.60
16793;BME280;8513;42.662;23.350;2022-12-05T14:28:58;95691.22;;;7.97;64.92
16793;BME280;8513;42.662;23.350;2022-12-05T14:31:37;95689.69;;;7.94;65.44
16793;BME280;8513;42.662;23.350;2022-12-05T14:37:00;95693.13;;;7.95;65.29
16793;BME280;8513;42.662;23.350;2022-12-05T14:39:46;95696.78;;;8.15;65.17
16793;BME280;8513;42.662;23.350;2022-12-05T14:45:37;95699.66;;;8.12;64.96
16793;BME280;8513;42.662;23.350;2022-12-05T14:50:51;95697.41;;;7.96;65.81
16793;BME280;8513;42.662;23.350;2022-12-05T14:55:44;95690.50;;;8.06;65.30
16793;BME280;8513;42.662;23.350;2022-12-05T14:58:34;95699.66;;;8.01;65.68
16793;BME280;8513;42.662;23.350;2022-12-05T15:03:41;95697.06;;;8.01;65.29
16793;BME280;8513;42.662;23.350;2022-12-05T15:06:13;95687.06;;;7.94;66.04
16793;BME280;8513;42.662;23.350;2022-12-05T15:08:48;95685.16;;;7.97;66.12
16793;BME280;8513;42.662;23.350;2022-12-05T15:11:17;95687.88;;;8.06;66.57
16793;BME280;8513;42.662;23.350;2022-12-05T15:14:19;95691.94;;;8.10;66.48
16793;BME280;8513;42.662;23.350;2022-12-05T15:16:45;95692.63;;;8.01;67.19
16793;BME280;8513;42.662;23.350;2022-12-05T15:19:28;95687.75;;;7.85;66.84
16793;BME280;8513;42.662;23.350;2022-12-05T15:21:57;95692.06;;;7.86;66.83
16793;BME280;8513;42.662;23.350;2022-12-05T15:24:24;95691.56;;;8.04;66.45
16793;BME280;8513;42.662;23.350;2022-12-05T15:26:54;95690.75;;;8.03;66.39
16793;BME280;8513;42.662;23.350;2022-12-05T15:31:50;95678.50;;;7.70;67.59
16793;BME280;8513;42.662;23.350;2022-12-05T15:34:26;95676.13;;;7.78;66.71
16793;BME280;8513;42.662;23.350;2022-12-05T15:37:01;95680.53;;;7.89;66.68
16793;BME280;8513;42.662;23.350;2022-12-05T15:39:28;95678.16;;;7.86;66.48
16793;BME280;8513;42.662;23.350;2022-12-05T15:41:55;95679.56;;;7.90;67.00
16793;BME280;8513;42.662;23.350;2022-12-05T15:44:22;95683.63;;;7.94;66.63
16793;BME280;8513;42.662;23.350;2022-12-05T15:46:53;95682.53;;;8.08;66.49
16793;BME280;8513;42.662;23.350;2022-12-05T15:49:24;95676.34;;;8.09;66.93
16793;BME280;8513;42.662;23.350;2022-12-05T15:51:54;95685.75;;;8.00;66.80
16793;BME280;8513;42.662;23.350;2022-12-05T15:54:29;95675.16;;;8.13;66.71
16793;BME280;8513;42.662;23.350;2022-12-05T15:57:12;95684.09;;;8.10;66.36
16793;BME280;8513;42.662;23.350;2022-12-05T15:59:42;95682.06;;;7.91;67.18
16793;BME280;8513;42.662;23.350;2022-12-05T16:02:14;95685.50;;;8.03;67.26
16793;BME280;8513;42.662;23.350;2022-12-05T16:04:45;95690.03;;;7.79;68.26
16793;BME280;8513;42.662;23.350;2022-12-05T16:07:12;95688.72;;;7.84;68.78